PORTS® Data Listing: 9076070 S.W. Pier, St. Marys River, MI

CO-OPS RAW PORTS DATA

************************      PRELIMINARY DATA      ************************** 

     THIS RAW DATA HAS NOT BEEN SUBJECT TO THE NATIONAL OCEAN SERVICE'S        
     QUALITY CONTROL OR QUALITY ASSURANCE PROCEDURES AND DOES NOT MEET         
     THE CRITERIA AND STANDARDS OF OFFICIAL NATIONAL OCEAN SERVICE             
     DATA.  IT IS RELEASED FOR LIMITED PUBLIC USE AS PRELIMINARY DATA TO       
     BE USED ONLY WITH APPROPRIATE CAUTION.                                    

************************      PRELIMINARY DATA      ************************** 


       CD   -   Calendar date
       T    -   Time
       TZ   -   Timezone
       SW   -   Observed secondary water level (inches IGLD 1985)
       PW   -   Observed primary water level (inches IGLD 1985)
       WS   -   Wind speed (knots)
       WD   -   Wind direction (degrees true)
       WG   -   Wind gust (knots)
       AT   -   Air temperature (degrees farenheit)
       WT   -   Water temperature (degrees farenheit)
       AP   -   Air pressure (millibars)
       SA   -   Salinty (PSU - Practical Salinity Units)
       SG   -   Specific gravity
       RH   -   Relative humidity
       AG   -   Air gap (feet)
       VI   -   Visibility (nautical miles)

       ** NOTE **
       A variable that has its data fields filled with "9"s, indicates that
       data was not collected for that sample period.
       **********


STATION NAME: S.W. Pier (9076070)
****************************************************************************************************
    CD       T    TZ    SW     PW    WS   WD   WG    AT    WT    AP    SA    SG     RH    AG   VI
****************************************************************************************************
2019/12/07 11:48 EST   22.44  22.48    3   80    4  24.8  41.7 1024.0 -9.9 -9.999 -99.9 -99.99 -9.99
2019/12/07 11:54 EST   22.05  22.09    3   78    4  25.2  41.7 1024.0 -9.9 -9.999 -99.9 -99.99 -9.99
2019/12/07 12:00 EST   22.17  22.20    4   83    5  25.7  41.7 1023.9 -9.9 -9.999 -99.9 -99.99 -9.99
2019/12/07 12:06 EST   22.24  22.28    4   94    6  26.1  41.7 1023.9 -9.9 -9.999 -99.9 -99.99 -9.99
2019/12/07 12:12 EST   22.48  22.48    3   89    5  26.4  41.7 1023.8 -9.9 -9.999 -99.9 -99.99 -9.99
2019/12/07 12:18 EST   22.48  22.48    4  136    5  27.0  41.7 1023.7 -9.9 -9.999 -99.9 -99.99 -9.99
2019/12/07 12:24 EST   22.52  22.56    5  138    7  27.3  41.7 1023.5 -9.9 -9.999 -99.9 -99.99 -9.99
2019/12/07 12:30 EST   22.52  22.56    4  124    6  27.5  41.7 1023.5 -9.9 -9.999 -99.9 -99.99 -9.99
2019/12/07 12:36 EST   22.64  22.68    3  147    6  27.7  41.7 1023.5 -9.9 -9.999 -99.9 -99.99 -9.99
2019/12/07 12:42 EST   22.83  22.83    3  177    5  27.7  41.7 1023.4 -9.9 -9.999 -99.9 -99.99 -9.99
2019/12/07 12:48 EST   23.07  23.11    3  168    6  27.9  41.7 1023.3 -9.9 -9.999 -99.9 -99.99 -9.99
2019/12/07 12:54 EST   23.19  23.19    1  232    6  28.0  41.7 1023.2 -9.9 -9.999 -99.9 -99.99 -9.99
2019/12/07 13:00 EST   23.15  23.19    2  109    3  28.2  41.7 1023.0 -9.9 -9.999 -99.9 -99.99 -9.99
2019/12/07 13:06 EST   22.99  23.03    4  137    6  28.2  41.7 1022.9 -9.9 -9.999 -99.9 -99.99 -9.99
2019/12/07 13:12 EST   22.64  22.64    2  163    5  28.4  41.7 1022.8 -9.9 -9.999 -99.9 -99.99 -9.99
2019/12/07 13:18 EST   22.64  22.68    2  154    4  28.4  41.7 1022.7 -9.9 -9.999 -99.9 -99.99 -9.99
2019/12/07 13:24 EST   22.48  22.52    3  133    4  28.6  41.7 1022.5 -9.9 -9.999 -99.9 -99.99 -9.99
2019/12/07 13:30 EST   22.36  22.40    3  136    5  28.8  41.7 1022.4 -9.9 -9.999 -99.9 -99.99 -9.99
2019/12/07 13:36 EST   20.20  20.20    3  152    5  28.9  41.7 1022.4 -9.9 -9.999 -99.9 -99.99 -9.99
2019/12/07 13:42 EST   22.05  22.13    4  158    8  28.9  41.7 1022.4 -9.9 -9.999 -99.9 -99.99 -9.99
2019/12/07 13:48 EST   20.94  20.98    4  151    6  29.3  41.5 1022.3 -9.9 -9.999 -99.9 -99.99 -9.99
2019/12/07 13:54 EST   21.22  21.26    5  168    7  29.7  41.5 1022.2 -9.9 -9.999 -99.9 -99.99 -9.99
2019/12/07 14:00 EST   20.67  20.71    4  170    7  30.0  41.5 1022.1 -9.9 -9.999 -99.9 -99.99 -9.99
2019/12/07 14:06 EST   20.87  20.91    6  161   10  30.0  41.5 1022.0 -9.9 -9.999 -99.9 -99.99 -9.99
2019/12/07 14:12 EST   19.29  19.17    6  135    8  29.8  41.7 1022.0 -9.9 -9.999 -99.9 -99.99 -9.99
2019/12/07 14:18 EST   20.71  20.75    5  142    8  30.0  41.7 1021.8 -9.9 -9.999 -99.9 -99.99 -9.99
2019/12/07 14:24 EST   20.67  20.67    5  144    9  30.2  41.7 1021.7 -9.9 -9.999 -99.9 -99.99 -9.99
2019/12/07 14:30 EST   21.38  21.42    5  150    7  30.4  41.5 1021.5 -9.9 -9.999 -99.9 -99.99 -9.99
2019/12/07 14:36 EST   21.61  21.65    5  152   10  30.6  41.5 1021.5 -9.9 -9.999 -99.9 -99.99 -9.99
2019/12/07 14:42 EST   21.97  22.01    5  152    9  30.6  41.5 1021.4 -9.9 -9.999 -99.9 -99.99 -9.99
2019/12/07 14:48 EST   21.85  21.89    4  150    7  30.6  41.5 1021.4 -9.9 -9.999 -99.9 -99.99 -9.99
2019/12/07 14:54 EST   21.81  21.85    5  163    7  30.7  41.5 1021.4 -9.9 -9.999 -99.9 -99.99 -9.99
2019/12/07 15:00 EST   21.46  21.50    4  158    7  30.9  41.5 1021.5 -9.9 -9.999 -99.9 -99.99 -9.99
2019/12/07 15:06 EST   21.06  21.10    5  162    8  30.9  41.5 1021.4 -9.9 -9.999 -99.9 -99.99 -9.99
2019/12/07 15:12 EST   21.54  21.57    4  169    9  31.1  41.5 1021.4 -9.9 -9.999 -99.9 -99.99 -9.99
2019/12/07 15:18 EST   20.83  20.83    4  159    7  31.3  41.5 1021.4 -9.9 -9.999 -99.9 -99.99 -9.99
2019/12/07 15:24 EST   21.18  21.26    4  150    6  30.9  41.5 1021.4 -9.9 -9.999 -99.9 -99.99 -9.99
2019/12/07 15:30 EST   20.00  20.04    5  147    7  31.1  41.5 1021.4 -9.9 -9.999 -99.9 -99.99 -9.99
2019/12/07 15:36 EST   20.28  20.31    6  151   10  31.1  41.5 1021.3 -9.9 -9.999 -99.9 -99.99 -9.99
2019/12/07 15:42 EST   19.84  19.88    6  157   10  31.6  41.5 1021.2 -9.9 -9.999 -99.9 -99.99 -9.99
2019/12/07 15:48 EST   20.59  20.63    7  163   10  31.6  41.5 1021.1 -9.9 -9.999 -99.9 -99.99 -9.99
2019/12/07 15:54 EST   19.72  19.76    6  163   11  31.6  41.5 1021.1 -9.9 -9.999 -99.9 -99.99 -9.99
2019/12/07 16:00 EST   18.94  18.98    6  162   10  31.5  41.5 1021.0 -9.9 -9.999 -99.9 -99.99 -9.99
2019/12/07 16:06 EST   20.31  20.35    7  156   11  31.1  41.7 1021.0 -9.9 -9.999 -99.9 -99.99 -9.99
2019/12/07 16:12 EST   20.00  20.00    6  149   11  31.1  41.7 1021.0 -9.9 -9.999 -99.9 -99.99 -9.99
2019/12/07 16:18 EST   20.63  20.67    6  156   10  31.1  41.5 1020.9 -9.9 -9.999 -99.9 -99.99 -9.99
2019/12/07 16:24 EST   20.98  21.02    5  154    8  31.1  41.5 1020.8 -9.9 -9.999 -99.9 -99.99 -9.99
2019/12/07 16:30 EST   21.42  21.46    6  146    8  31.1  41.5 1020.8 -9.9 -9.999 -99.9 -99.99 -9.99
2019/12/07 16:36 EST   21.93  21.97    4  152    7  31.1  41.5 1020.8 -9.9 -9.999 -99.9 -99.99 -9.99
2019/12/07 16:42 EST   22.32  22.36    6  139    8  31.1  41.5 1020.8 -9.9 -9.999 -99.9 -99.99 -9.99
2019/12/07 16:48 EST   22.05  22.09    6  143   10  31.1  41.5 1020.7 -9.9 -9.999 -99.9 -99.99 -9.99
2019/12/07 16:54 EST   22.01  22.05    5  152    9  31.1  41.5 1020.6 -9.9 -9.999 -99.9 -99.99 -9.99
2019/12/07 17:00 EST   21.38  21.42    7  143   10  31.1  41.5 1020.5 -9.9 -9.999 -99.9 -99.99 -9.99
2019/12/07 17:06 EST   22.80  22.83    5  145    9  31.1  41.5 1020.4 -9.9 -9.999 -99.9 -99.99 -9.99
2019/12/07 17:12 EST   21.06  21.10    5  140   10  31.1  41.5 1020.2 -9.9 -9.999 -99.9 -99.99 -9.99
2019/12/07 17:18 EST   21.46  21.50    7  137   11  31.3  41.5 1020.1 -9.9 -9.999 -99.9 -99.99 -9.99
2019/12/07 17:24 EST   20.63  20.67    8  133    9  31.3  41.5 1020.0 -9.9 -9.999 -99.9 -99.99 -9.99
2019/12/07 17:30 EST   20.39  20.43    8  127   11  31.3  41.5 1019.9 -9.9 -9.999 -99.9 -99.99 -9.99
2019/12/07 17:36 EST   19.41  19.45    7  133   13  31.3  41.5 1019.9 -9.9 -9.999 -99.9 -99.99 -9.99
2019/12/07 17:42 EST   19.53  19.57    7  133   11  31.5  41.5 1019.8 -9.9 -9.999 -99.9 -99.99 -9.99
2019/12/07 17:48 EST   18.98  19.02    7  137   11  31.5  41.5 1019.7 -9.9 -9.999 -99.9 -99.99 -9.99
2019/12/07 17:54 EST   19.09  19.13    8  133   11  31.5  41.5 1019.7 -9.9 -9.999 -99.9 -99.99 -9.99
2019/12/07 18:00 EST   18.62  18.66    9  140   12  31.6  41.5 1019.7 -9.9 -9.999 -99.9 -99.99 -9.99
2019/12/07 18:06 EST   18.50  18.54    9  145   12  31.8  41.5 1019.6 -9.9 -9.999 -99.9 -99.99 -9.99
2019/12/07 18:12 EST   17.80  17.83    7  141   13  31.6  41.5 1019.6 -9.9 -9.999 -99.9 -99.99 -9.99
2019/12/07 18:18 EST   17.76  17.80    8  135   12  31.8  41.5 1019.5 -9.9 -9.999 -99.9 -99.99 -9.99
2019/12/07 18:24 EST   17.40  17.44    8  136   13  31.8  41.5 1019.4 -9.9 -9.999 -99.9 -99.99 -9.99
2019/12/07 18:30 EST   17.40  17.40    9  139   13  31.8  41.5 1019.2 -9.9 -9.999 -99.9 -99.99 -9.99
2019/12/07 18:36 EST   17.09  17.13    9  137   14  32.0  41.7 1019.1 -9.9 -9.999 -99.9 -99.99 -9.99
2019/12/07 18:42 EST   17.01  17.05    9  137   14  32.0  41.7 1019.0 -9.9 -9.999 -99.9 -99.99 -9.99
2019/12/07 18:48 EST   16.81  16.85    7  142   12  32.2  41.5 1018.9 -9.9 -9.999 -99.9 -99.99 -9.99
2019/12/07 18:54 EST   16.30  16.34    7  136   12  32.2  41.7 1018.9 -9.9 -9.999 -99.9 -99.99 -9.99
2019/12/07 19:00 EST   16.73  16.77    9  144   13  32.4  41.7 1018.6 -9.9 -9.999 -99.9 -99.99 -9.99
2019/12/07 19:06 EST   15.79  15.83    8  146   11  32.4  41.7 1018.5 -9.9 -9.999 -99.9 -99.99 -9.99
2019/12/07 19:12 EST   16.02  16.06    7  141   13  32.4  41.7 1018.5 -9.9 -9.999 -99.9 -99.99 -9.99
2019/12/07 19:18 EST   16.10  16.14    8  147   11  32.4  41.7 1018.6 -9.9 -9.999 -99.9 -99.99 -9.99
2019/12/07 19:24 EST   16.06  16.06    8  157   14  32.4  41.7 1018.7 -9.9 -9.999 -99.9 -99.99 -9.99
2019/12/07 19:30 EST   15.91  15.98    8  139   14  32.4  41.7 1018.5 -9.9 -9.999 -99.9 -99.99 -9.99
2019/12/07 19:36 EST   16.34  16.34    6  149   13  32.4  41.7 1018.5 -9.9 -9.999 -99.9 -99.99 -9.99
2019/12/07 19:42 EST   16.54  16.54    6  159   11  32.4  41.5 1018.5 -9.9 -9.999 -99.9 -99.99 -9.99
2019/12/07 19:48 EST   17.05  17.09    7  152   14  32.4  41.5 1018.4 -9.9 -9.999 -99.9 -99.99 -9.99
2019/12/07 19:54 EST   16.46  16.50    7  153   14  32.5  41.5 1018.2 -9.9 -9.999 -99.9 -99.99 -9.99
2019/12/07 20:00 EST   18.82  18.86    6  153   11  32.4  41.7 1018.2 -9.9 -9.999 -99.9 -99.99 -9.99
2019/12/07 20:06 EST   17.60  17.60   10  148   14  32.5  41.5 1018.1 -9.9 -9.999 -99.9 -99.99 -9.99
2019/12/07 20:12 EST   18.54  18.58    8  160   12  32.5  41.7 1018.1 -9.9 -9.999 -99.9 -99.99 -9.99
2019/12/07 20:18 EST   18.03  18.11    9  152   15  32.5  41.5 1018.0 -9.9 -9.999 -99.9 -99.99 -9.99
2019/12/07 20:24 EST   18.66  18.70   10  147   15  32.5  41.7 1017.9 -9.9 -9.999 -99.9 -99.99 -9.99
2019/12/07 20:30 EST   18.86  18.90    8  144   13  32.5  41.7 1017.7 -9.9 -9.999 -99.9 -99.99 -9.99
2019/12/07 20:36 EST   18.74  18.78    6  148   11  32.5  41.5 1017.7 -9.9 -9.999 -99.9 -99.99 -9.99
2019/12/07 20:42 EST   19.41  19.45   10  151   15  32.7  41.7 1017.6 -9.9 -9.999 -99.9 -99.99 -9.99
2019/12/07 20:48 EST   19.45  19.49    9  162   14  32.7  41.7 1017.7 -9.9 -9.999 -99.9 -99.99 -9.99
2019/12/07 20:54 EST   20.04  20.08    7  155   16  32.7  41.7 1017.6 -9.9 -9.999 -99.9 -99.99 -9.99
2019/12/07 21:00 EST   19.96  20.00    6  161   10  32.7  41.7 1017.6 -9.9 -9.999 -99.9 -99.99 -9.99
2019/12/07 21:06 EST   20.75  20.75    7  164   10  32.7  41.7 1017.6 -9.9 -9.999 -99.9 -99.99 -9.99
2019/12/07 21:12 EST   21.14  21.18    8  147   14  32.7  41.7 1017.5 -9.9 -9.999 -99.9 -99.99 -9.99
2019/12/07 21:18 EST   22.24  22.28    8  161   14  32.7  41.7 1017.6 -9.9 -9.999 -99.9 -99.99 -9.99
2019/12/07 21:24 EST   22.91  22.99    8  163   12  32.7  41.7 1017.5 -9.9 -9.999 -99.9 -99.99 -9.99
2019/12/07 21:30 EST   24.13  24.17    7  159   11  32.5  41.7 1017.4 -9.9 -9.999 -99.9 -99.99 -9.99
2019/12/07 21:36 EST   25.04  25.08    9  150   15  32.5  41.7 1017.1 -9.9 -9.999 -99.9 -99.99 -9.99
2019/12/07 21:42 EST   26.06  26.10    8  148   12  32.5  41.7 1017.1 -9.9 -9.999 -99.9 -99.99 -9.99
2019/12/07 21:48 EST   26.69  26.73    6  151    9  32.5  41.7 1017.2 -9.9 -9.999 -99.9 -99.99 -9.99
2019/12/07 21:54 EST   27.40  27.40    8  155   12  32.4  41.7 1017.1 -9.9 -9.999 -99.9 -99.99 -9.99
2019/12/07 22:00 EST   27.72  27.72    8  150   13  32.4  41.7 1017.0 -9.9 -9.999 -99.9 -99.99 -9.99
2019/12/07 22:06 EST   27.68  27.72    7  157   15  32.4  41.7 1016.9 -9.9 -9.999 -99.9 -99.99 -9.99
2019/12/07 22:12 EST   27.40  27.44    8  161   12  32.4  41.7 1016.8 -9.9 -9.999 -99.9 -99.99 -9.99
2019/12/07 22:18 EST   26.85  26.89    6  164   11  32.4  41.7 1016.7 -9.9 -9.999 -99.9 -99.99 -9.99
2019/12/07 22:24 EST   26.10  26.14    8  159   12  32.4  41.7 1016.7 -9.9 -9.999 -99.9 -99.99 -9.99
2019/12/07 22:30 EST   25.16  25.20    6  149   13  32.2  41.7 1016.6 -9.9 -9.999 -99.9 -99.99 -9.99
2019/12/07 22:36 EST   23.78  23.82    8  148   12  32.2  41.7 1016.5 -9.9 -9.999 -99.9 -99.99 -9.99
2019/12/07 22:42 EST   22.28  22.32    8  154   12  32.2  41.7 1016.5 -9.9 -9.999 -99.9 -99.99 -9.99
2019/12/07 22:48 EST   20.75  20.79    7  153   13  32.0  41.7 1016.4 -9.9 -9.999 -99.9 -99.99 -9.99
2019/12/07 22:54 EST   19.33  19.37    8  156   12  32.0  41.7 1016.2 -9.9 -9.999 -99.9 -99.99 -9.99
2019/12/07 23:00 EST   18.15  18.19    6  150   11  32.0  41.7 1016.1 -9.9 -9.999 -99.9 -99.99 -9.99
2019/12/07 23:06 EST   17.17  17.20    8  148   12  32.0  41.7 1016.0 -9.9 -9.999 -99.9 -99.99 -9.99
2019/12/07 23:12 EST   16.42  16.46    8  141   14  31.8  41.7 1015.9 -9.9 -9.999 -99.9 -99.99 -9.99
2019/12/07 23:18 EST   15.79  15.79    7  144   11  31.8  41.7 1015.8 -9.9 -9.999 -99.9 -99.99 -9.99
2019/12/07 23:24 EST   14.92  14.96    7  143   11  31.8  41.7 1015.6 -9.9 -9.999 -99.9 -99.99 -9.99
2019/12/07 23:30 EST   14.13  14.17    8  134   11  31.6  41.7 1015.3 -9.9 -9.999 -99.9 -99.99 -9.99
2019/12/07 23:36 EST   13.35  13.39    9  146   15  31.6  41.7 1015.2 -9.9 -9.999 -99.9 -99.99 -9.99
2019/12/07 23:42 EST   12.83  12.87    8  136   16  31.6  41.7 1015.0 -9.9 -9.999 -99.9 -99.99 -9.99
2019/12/07 23:48 EST   11.50  11.50    8  138   15  31.6  41.7 1014.9 -9.9 -9.999 -99.9 -99.99 -9.99
2019/12/07 23:54 EST   12.28  12.32   11  141   14  31.6  41.7 1014.8 -9.9 -9.999 -99.9 -99.99 -9.99
2019/12/08 00:00 EST   11.69  11.73   10  146   17  31.6  41.7 1014.6 -9.9 -9.999 -99.9 -99.99 -9.99
2019/12/08 00:06 EST   11.97  12.01    9  146   14  31.6  41.7 1014.5 -9.9 -9.999 -99.9 -99.99 -9.99
2019/12/08 00:12 EST   11.30  11.34    8  146   16  31.5  41.7 1014.3 -9.9 -9.999 -99.9 -99.99 -9.99
2019/12/08 00:18 EST   12.44  12.48   10  145   15  31.5  41.9 1014.2 -9.9 -9.999 -99.9 -99.99 -9.99
2019/12/08 00:24 EST   10.59  10.63    9  148   15  31.5  41.7 1014.0 -9.9 -9.999 -99.9 -99.99 -9.99
2019/12/08 00:30 EST   10.43  10.47    8  150   15  31.5  41.7 1013.9 -9.9 -9.999 -99.9 -99.99 -9.99
2019/12/08 00:36 EST   10.94  10.98    7  149   15  31.5  41.7 1013.8 -9.9 -9.999 -99.9 -99.99 -9.99
2019/12/08 00:42 EST   11.73  11.73    9  146   15  31.5  41.7 1013.7 -9.9 -9.999 -99.9 -99.99 -9.99
2019/12/08 00:48 EST   11.73  11.73    8  145   12  31.6  41.7 1013.6 -9.9 -9.999 -99.9 -99.99 -9.99
2019/12/08 00:54 EST   14.72  14.76    8  165   13  31.8  41.7 1013.7 -9.9 -9.999 -99.9 -99.99 -9.99
2019/12/08 01:00 EST   14.41  14.41    8  138   12  31.8  41.7 1013.4 -9.9 -9.999 -99.9 -99.99 -9.99
2019/12/08 01:06 EST   16.18  16.18    6  149   14  31.8  41.7 1013.4 -9.9 -9.999 -99.9 -99.99 -9.99
2019/12/08 01:12 EST   15.87  15.87    9  147   14  32.0  41.7 1013.4 -9.9 -9.999 -99.9 -99.99 -9.99
2019/12/08 01:18 EST   14.88  14.88    7  157   11  32.0  41.7 1013.3 -9.9 -9.999 -99.9 -99.99 -9.99
2019/12/08 01:24 EST   17.99  17.95    8  146   14  32.0  41.9 1013.2 -9.9 -9.999 -99.9 -99.99 -9.99
2019/12/08 01:30 EST   18.86  18.86   10  146   14  32.0  41.7 1013.0 -9.9 -9.999 -99.9 -99.99 -9.99
2019/12/08 01:36 EST   19.53  19.53    9  141   12  32.0  41.5 1012.7 -9.9 -9.999 -99.9 -99.99 -9.99
2019/12/08 01:42 EST   19.80  19.84   10  135   17  32.0  41.5 1012.2 -9.9 -9.999 -99.9 -99.99 -9.99
2019/12/08 01:48 EST   20.55  20.59   11  139   16  32.0  41.5 1012.0 -9.9 -9.999 -99.9 -99.99 -9.99
2019/12/08 01:54 EST   20.24  20.24    7  154   11  32.2  41.5 1011.9 -9.9 -9.999 -99.9 -99.99 -9.99
2019/12/08 02:00 EST   20.79  20.83    9  137   13  32.2  41.5 1011.5 -9.9 -9.999 -99.9 -99.99 -9.99
2019/12/08 02:06 EST   20.24  20.28   12  128   18  32.2  41.5 1011.3 -9.9 -9.999 -99.9 -99.99 -9.99
2019/12/08 02:12 EST   19.65  19.65   10  141   17  32.2  41.5 1011.3 -9.9 -9.999 -99.9 -99.99 -9.99
2019/12/08 02:18 EST   18.86  18.90    7  153   15  32.2  41.5 1011.4 -9.9 -9.999 -99.9 -99.99 -9.99
2019/12/08 02:24 EST   19.06  19.09   12  134   18  32.4  41.5 1011.2 -9.9 -9.999 -99.9 -99.99 -9.99
2019/12/08 02:30 EST   18.54  18.58    9  178   19  32.4  41.5 1011.4 -9.9 -9.999 -99.9 -99.99 -9.99
2019/12/08 02:36 EST   17.91  17.99    7  159   11  32.2  41.5 1011.6 -9.9 -9.999 -99.9 -99.99 -9.99
2019/12/08 02:42 EST   16.73  16.65    8  141   12  32.4  41.5 1011.3 -9.9 -9.999 -99.9 -99.99 -9.99
2019/12/08 02:48 EST   16.69  16.73    7  162   13  32.4  41.7 1011.1 -9.9 -9.999 -99.9 -99.99 -9.99
2019/12/08 02:54 EST   17.13  17.17    8  150   13  32.7  41.7 1011.0 -9.9 -9.999 -99.9 -99.99 -9.99
2019/12/08 03:00 EST   17.01  17.05    9  157   13  32.7  41.5 1010.8 -9.9 -9.999 -99.9 -99.99 -9.99
2019/12/08 03:06 EST   17.64  17.68    9  144   16  32.7  41.5 1010.8 -9.9 -9.999 -99.9 -99.99 -9.99
2019/12/08 03:12 EST   18.07  18.11   10  141   17  32.7  41.5 1010.8 -9.9 -9.999 -99.9 -99.99 -9.99
2019/12/08 03:18 EST   18.43  18.46    9  139   14  32.5  41.5 1010.8 -9.9 -9.999 -99.9 -99.99 -9.99
2019/12/08 03:24 EST   18.66  18.70    7  132   12  32.5  41.5 1010.7 -9.9 -9.999 -99.9 -99.99 -9.99
2019/12/08 03:30 EST   18.58  18.58    7  135   11  32.5  41.5 1010.5 -9.9 -9.999 -99.9 -99.99 -9.99
2019/12/08 03:36 EST   19.02  19.06    7  133   11  32.5  41.5 1010.5 -9.9 -9.999 -99.9 -99.99 -9.99
2019/12/08 03:42 EST   19.41  19.45    6  149   10  32.7  41.5 1010.5 -9.9 -9.999 -99.9 -99.99 -9.99
2019/12/08 03:48 EST   20.35  20.39    7  138    9  32.7  41.5 1010.3 -9.9 -9.999 -99.9 -99.99 -9.99
2019/12/08 03:54 EST   20.59  20.63    6  142   11  32.9  41.5 1010.3 -9.9 -9.999 -99.9 -99.99 -9.99
2019/12/08 04:00 EST   18.86  18.90    6  145   11  32.9  41.5 1010.3 -9.9 -9.999 -99.9 -99.99 -9.99
2019/12/08 04:06 EST   20.43  20.43    7  140   10  32.9  41.5 1010.0 -9.9 -9.999 -99.9 -99.99 -9.99
2019/12/08 04:12 EST   20.39  20.43    7  132   12  32.9  41.5 1009.8 -9.9 -9.999 -99.9 -99.99 -9.99
2019/12/08 04:18 EST   20.67  20.71    9  129   11  33.1  41.5 1009.7 -9.9 -9.999 -99.9 -99.99 -9.99
2019/12/08 04:24 EST   20.31  20.35    8  127   12  33.1  41.5 1009.6 -9.9 -9.999 -99.9 -99.99 -9.99
2019/12/08 04:30 EST   20.35  20.35    7  129   10  33.1  41.5 1009.4 -9.9 -9.999 -99.9 -99.99 -9.99
2019/12/08 04:36 EST   20.12  20.16    5  127   10  33.1  41.5 1009.3 -9.9 -9.999 -99.9 -99.99 -9.99
2019/12/08 04:42 EST   19.88  19.92    7  139   11  33.1  41.5 1009.0 -9.9 -9.999 -99.9 -99.99 -9.99
2019/12/08 04:48 EST   19.80  19.80    5  130   13  33.1  41.5 1009.1 -9.9 -9.999 -99.9 -99.99 -9.99
2019/12/08 04:54 EST   20.08  20.12    6  136    9  33.3  41.5 1009.0 -9.9 -9.999 -99.9 -99.99 -9.99
2019/12/08 05:00 EST   20.59  20.63    5  135   11  33.3  41.5 1009.0 -9.9 -9.999 -99.9 -99.99 -9.99
2019/12/08 05:06 EST   20.98  20.98    5  136    7  33.3  41.5 1008.9 -9.9 -9.999 -99.9 -99.99 -9.99
2019/12/08 05:12 EST   20.94  20.98    5  140    8  33.4  41.5 1008.8 -9.9 -9.999 -99.9 -99.99 -9.99
2019/12/08 05:18 EST   20.63  20.67    5  138    8  33.3  41.5 1008.7 -9.9 -9.999 -99.9 -99.99 -9.99
2019/12/08 05:24 EST   20.63  20.67    4  138    6  33.3  41.5 1008.6 -9.9 -9.999 -99.9 -99.99 -9.99
2019/12/08 05:30 EST   20.16  20.16    4  123    7  33.3  41.5 1008.5 -9.9 -9.999 -99.9 -99.99 -9.99
2019/12/08 05:36 EST   19.69  19.72    4  137    8  33.4  41.5 1008.4 -9.9 -9.999 -99.9 -99.99 -9.99
2019/12/08 05:42 EST   22.40  22.40    4  130    7  33.3  41.5 1008.2 -9.9 -9.999 -99.9 -99.99 -9.99
2019/12/08 05:48 EST  -99.99 -99.99 -999 -999 -999 -99.9 -99.9 -999.9 -9.9 -9.999 -99.9 -99.99 -9.99
2019/12/08 05:54 EST  -99.99 -99.99 -999 -999 -999 -99.9 -99.9 -999.9 -9.9 -9.999 -99.9 -99.99 -9.99
2019/12/08 06:00 EST  -99.99 -99.99 -999 -999 -999 -99.9 -99.9 -999.9 -9.9 -9.999 -99.9 -99.99 -9.99
2019/12/08 06:06 EST  -99.99 -99.99 -999 -999 -999 -99.9 -99.9 -999.9 -9.9 -9.999 -99.9 -99.99 -9.99
2019/12/08 06:12 EST  -99.99 -99.99 -999 -999 -999 -99.9 -99.9 -999.9 -9.9 -9.999 -99.9 -99.99 -9.99
2019/12/08 06:18 EST  -99.99 -99.99 -999 -999 -999 -99.9 -99.9 -999.9 -9.9 -9.999 -99.9 -99.99 -9.99
2019/12/08 06:24 EST  -99.99 -99.99 -999 -999 -999 -99.9 -99.9 -999.9 -9.9 -9.999 -99.9 -99.99 -9.99
2019/12/08 06:30 EST  -99.99 -99.99 -999 -999 -999 -99.9 -99.9 -999.9 -9.9 -9.999 -99.9 -99.99 -9.99
2019/12/08 06:36 EST  -99.99 -99.99 -999 -999 -999 -99.9 -99.9 -999.9 -9.9 -9.999 -99.9 -99.99 -9.99
2019/12/08 06:42 EST  -99.99 -99.99 -999 -999 -999 -99.9 -99.9 -999.9 -9.9 -9.999 -99.9 -99.99 -9.99
2019/12/08 06:48 EST  -99.99 -99.99 -999 -999 -999 -99.9 -99.9 -999.9 -9.9 -9.999 -99.9 -99.99 -9.99
2019/12/08 06:54 EST  -99.99 -99.99 -999 -999 -999 -99.9 -99.9 -999.9 -9.9 -9.999 -99.9 -99.99 -9.99
2019/12/08 07:00 EST  -99.99 -99.99 -999 -999 -999 -99.9 -99.9 -999.9 -9.9 -9.999 -99.9 -99.99 -9.99
2019/12/08 07:06 EST  -99.99 -99.99 -999 -999 -999 -99.9 -99.9 -999.9 -9.9 -9.999 -99.9 -99.99 -9.99
2019/12/08 07:12 EST  -99.99 -99.99 -999 -999 -999 -99.9 -99.9 -999.9 -9.9 -9.999 -99.9 -99.99 -9.99
2019/12/08 07:18 EST  -99.99 -99.99 -999 -999 -999 -99.9 -99.9 -999.9 -9.9 -9.999 -99.9 -99.99 -9.99
2019/12/08 07:24 EST  -99.99 -99.99 -999 -999 -999 -99.9 -99.9 -999.9 -9.9 -9.999 -99.9 -99.99 -9.99
2019/12/08 07:30 EST  -99.99 -99.99 -999 -999 -999 -99.9 -99.9 -999.9 -9.9 -9.999 -99.9 -99.99 -9.99
2019/12/08 07:36 EST  -99.99 -99.99 -999 -999 -999 -99.9 -99.9 -999.9 -9.9 -9.999 -99.9 -99.99 -9.99
2019/12/08 07:42 EST  -99.99 -99.99 -999 -999 -999 -99.9 -99.9 -999.9 -9.9 -9.999 -99.9 -99.99 -9.99
2019/12/08 07:48 EST  -99.99 -99.99 -999 -999 -999 -99.9 -99.9 -999.9 -9.9 -9.999 -99.9 -99.99 -9.99
2019/12/08 07:54 EST  -99.99 -99.99 -999 -999 -999 -99.9 -99.9 -999.9 -9.9 -9.999 -99.9 -99.99 -9.99
2019/12/08 08:00 EST  -99.99 -99.99 -999 -999 -999 -99.9 -99.9 -999.9 -9.9 -9.999 -99.9 -99.99 -9.99
2019/12/08 08:06 EST  -99.99 -99.99 -999 -999 -999 -99.9 -99.9 -999.9 -9.9 -9.999 -99.9 -99.99 -9.99
2019/12/08 08:12 EST  -99.99 -99.99 -999 -999 -999 -99.9 -99.9 -999.9 -9.9 -9.999 -99.9 -99.99 -9.99
2019/12/08 08:18 EST  -99.99 -99.99 -999 -999 -999 -99.9 -99.9 -999.9 -9.9 -9.999 -99.9 -99.99 -9.99
2019/12/08 08:24 EST  -99.99 -99.99 -999 -999 -999 -99.9 -99.9 -999.9 -9.9 -9.999 -99.9 -99.99 -9.99
2019/12/08 08:30 EST  -99.99 -99.99 -999 -999 -999 -99.9 -99.9 -999.9 -9.9 -9.999 -99.9 -99.99 -9.99
2019/12/08 08:36 EST  -99.99 -99.99 -999 -999 -999 -99.9 -99.9 -999.9 -9.9 -9.999 -99.9 -99.99 -9.99
2019/12/08 08:42 EST  -99.99 -99.99 -999 -999 -999 -99.9 -99.9 -999.9 -9.9 -9.999 -99.9 -99.99 -9.99
2019/12/08 08:48 EST  -99.99 -99.99 -999 -999 -999 -99.9 -99.9 -999.9 -9.9 -9.999 -99.9 -99.99 -9.99
2019/12/08 08:54 EST  -99.99 -99.99 -999 -999 -999 -99.9 -99.9 -999.9 -9.9 -9.999 -99.9 -99.99 -9.99
2019/12/08 09:00 EST  -99.99 -99.99 -999 -999 -999 -99.9 -99.9 -999.9 -9.9 -9.999 -99.9 -99.99 -9.99
2019/12/08 09:06 EST  -99.99 -99.99 -999 -999 -999 -99.9 -99.9 -999.9 -9.9 -9.999 -99.9 -99.99 -9.99
2019/12/08 09:12 EST  -99.99 -99.99 -999 -999 -999 -99.9 -99.9 -999.9 -9.9 -9.999 -99.9 -99.99 -9.99
2019/12/08 09:18 EST  -99.99 -99.99 -999 -999 -999 -99.9 -99.9 -999.9 -9.9 -9.999 -99.9 -99.99 -9.99
2019/12/08 09:24 EST  -99.99 -99.99 -999 -999 -999 -99.9 -99.9 -999.9 -9.9 -9.999 -99.9 -99.99 -9.99
2019/12/08 09:30 EST  -99.99 -99.99 -999 -999 -999 -99.9 -99.9 -999.9 -9.9 -9.999 -99.9 -99.99 -9.99
2019/12/08 09:36 EST  -99.99 -99.99 -999 -999 -999 -99.9 -99.9 -999.9 -9.9 -9.999 -99.9 -99.99 -9.99
2019/12/08 09:42 EST  -99.99 -99.99 -999 -999 -999 -99.9 -99.9 -999.9 -9.9 -9.999 -99.9 -99.99 -9.99
2019/12/08 09:48 EST  -99.99 -99.99 -999 -999 -999 -99.9 -99.9 -999.9 -9.9 -9.999 -99.9 -99.99 -9.99
2019/12/08 09:54 EST  -99.99 -99.99 -999 -999 -999 -99.9 -99.9 -999.9 -9.9 -9.999 -99.9 -99.99 -9.99
2019/12/08 10:00 EST  -99.99 -99.99 -999 -999 -999 -99.9 -99.9 -999.9 -9.9 -9.999 -99.9 -99.99 -9.99
2019/12/08 10:06 EST  -99.99 -99.99 -999 -999 -999 -99.9 -99.9 -999.9 -9.9 -9.999 -99.9 -99.99 -9.99
2019/12/08 10:12 EST  -99.99 -99.99 -999 -999 -999 -99.9 -99.9 -999.9 -9.9 -9.999 -99.9 -99.99 -9.99
2019/12/08 10:18 EST  -99.99 -99.99 -999 -999 -999 -99.9 -99.9 -999.9 -9.9 -9.999 -99.9 -99.99 -9.99
2019/12/08 10:24 EST  -99.99 -99.99 -999 -999 -999 -99.9 -99.9 -999.9 -9.9 -9.999 -99.9 -99.99 -9.99
2019/12/08 10:30 EST  -99.99 -99.99 -999 -999 -999 -99.9 -99.9 -999.9 -9.9 -9.999 -99.9 -99.99 -9.99
2019/12/08 10:36 EST  -99.99 -99.99 -999 -999 -999 -99.9 -99.9 -999.9 -9.9 -9.999 -99.9 -99.99 -9.99
2019/12/08 10:42 EST  -99.99 -99.99 -999 -999 -999 -99.9 -99.9 -999.9 -9.9 -9.999 -99.9 -99.99 -9.99
2019/12/08 10:48 EST  -99.99 -99.99 -999 -999 -999 -99.9 -99.9 -999.9 -9.9 -9.999 -99.9 -99.99 -9.99
2019/12/08 10:54 EST  -99.99 -99.99 -999 -999 -999 -99.9 -99.9 -999.9 -9.9 -9.999 -99.9 -99.99 -9.99
2019/12/08 11:00 EST  -99.99 -99.99 -999 -999 -999 -99.9 -99.9 -999.9 -9.9 -9.999 -99.9 -99.99 -9.99
2019/12/08 11:06 EST  -99.99 -99.99 -999 -999 -999 -99.9 -99.9 -999.9 -9.9 -9.999 -99.9 -99.99 -9.99
2019/12/08 11:12 EST  -99.99 -99.99 -999 -999 -999 -99.9 -99.9 -999.9 -9.9 -9.999 -99.9 -99.99 -9.99
2019/12/08 11:18 EST  -99.99 -99.99 -999 -999 -999 -99.9 -99.9 -999.9 -9.9 -9.999 -99.9 -99.99 -9.99
2019/12/08 11:24 EST  -99.99 -99.99 -999 -999 -999 -99.9 -99.9 -999.9 -9.9 -9.999 -99.9 -99.99 -9.99
2019/12/08 11:30 EST  -99.99 -99.99 -999 -999 -999 -99.9 -99.9 -999.9 -9.9 -9.999 -99.9 -99.99 -9.99
2019/12/08 11:36 EST  -99.99 -99.99 -999 -999 -999 -99.9 -99.9 -999.9 -9.9 -9.999 -99.9 -99.99 -9.99
2019/12/08 11:42 EST  -99.99 -99.99 -999 -999 -999 -99.9 -99.9 -999.9 -9.9 -9.999 -99.9 -99.99 -9.99
2019/12/08 11:48 EST  -99.99 -99.99 -999 -999 -999 -99.9 -99.9 -999.9 -9.9 -9.999 -99.9 -99.99 -9.99